sensor_id;sensor_type;location;lat;lon;timestamp;temperature;humidity
32506;DHT22;18955;51.224;8.482;2023-09-19T00:00:38;16.40;87.20
32506;DHT22;18955;51.224;8.482;2023-09-19T00:03:06;16.40;87.10
32506;DHT22;18955;51.224;8.482;2023-09-19T00:05:36;16.40;87.30
32506;DHT22;18955;51.224;8.482;2023-09-19T00:08:04;16.30;87.20
32506;DHT22;18955;51.224;8.482;2023-09-19T00:10:30;16.40;87.30
32506;DHT22;18955;51.224;8.482;2023-09-19T00:12:57;16.30;87.10
32506;DHT22;18955;51.224;8.482;2023-09-19T00:15:25;16.30;87.10
32506;DHT22;18955;51.224;8.482;2023-09-19T00:17:54;16.30;87.10
32506;DHT22;18955;51.224;8.482;2023-09-19T00:20:21;16.30;87.10
32506;DHT22;18955;51.224;8.482;2023-09-19T00:22:49;16.30;87.10
32506;DHT22;18955;51.224;8.482;2023-09-19T00:25:19;16.30;87.10
32506;DHT22;18955;51.224;8.482;2023-09-19T00:27:46;16.30;87.10
32506;DHT22;18955;51.224;8.482;2023-09-19T00:30:15;16.20;87.00
32506;DHT22;18955;51.224;8.482;2023-09-19T00:32:42;16.20;87.00
32506;DHT22;18955;51.224;8.482;2023-09-19T00:35:08;16.20;86.90
32506;DHT22;18955;51.224;8.482;2023-09-19T00:37:37;16.20;86.90
32506;DHT22;18955;51.224;8.482;2023-09-19T00:40:06;16.20;86.90
32506;DHT22;18955;51.224;8.482;2023-09-19T00:42:36;16.20;86.90
32506;DHT22;18955;51.224;8.482;2023-09-19T00:45:04;16.20;87.40
32506;DHT22;18955;51.224;8.482;2023-09-19T00:47:31;16.20;86.90
32506;DHT22;18955;51.224;8.482;2023-09-19T00:49:57;16.20;86.90
32506;DHT22;18955;51.224;8.482;2023-09-19T00:52:23;16.10;86.70
32506;DHT22;18955;51.224;8.482;2023-09-19T00:54:51;16.10;86.60
32506;DHT22;18955;51.224;8.482;2023-09-19T00:57:17;16.10;86.70
32506;DHT22;18955;51.224;8.482;2023-09-19T00:59:45;16.10;86.70
32506;DHT22;18955;51.224;8.482;2023-09-19T01:02:15;16.10;86.60
32506;DHT22;18955;51.224;8.482;2023-09-19T01:04:41;16.00;86.60
32506;DHT22;18955;51.224;8.482;2023-09-19T01:07:08;16.00;86.60
32506;DHT22;18955;51.224;8.482;2023-09-19T01:09:34;16.00;86.60
32506;DHT22;18955;51.224;8.482;2023-09-19T01:12:01;16.00;86.50
32506;DHT22;18955;51.224;8.482;2023-09-19T01:14:38;16.00;86.60
32506;DHT22;18955;51.224;8.482;2023-09-19T01:32:06;15.90;86.40
32506;DHT22;18955;51.224;8.482;2023-09-19T01:37:14;15.80;86.30
32506;DHT22;18955;51.224;8.482;2023-09-19T01:39:48;15.80;86.40
32506;DHT22;18955;51.224;8.482;2023-09-19T01:44:57;15.80;86.20
32506;DHT22;18955;51.224;8.482;2023-09-19T01:47:26;15.80;86.30
32506;DHT22;18955;51.224;8.482;2023-09-19T01:52:19;15.70;86.20
32506;DHT22;18955;51.224;8.482;2023-09-19T01:54:50;15.70;86.30
32506;DHT22;18955;51.224;8.482;2023-09-19T01:57:26;15.70;86.20
32506;DHT22;18955;51.224;8.482;2023-09-19T01:59:56;15.70;86.30
32506;DHT22;18955;51.224;8.482;2023-09-19T02:02:24;15.60;86.00
32506;DHT22;18955;51.224;8.482;2023-09-19T02:04:51;15.60;86.20
32506;DHT22;18955;51.224;8.482;2023-09-19T02:07:18;15.60;86.10
32506;DHT22;18955;51.224;8.482;2023-09-19T02:09:44;15.60;86.00
32506;DHT22;18955;51.224;8.482;2023-09-19T02:12:10;15.60;86.00
32506;DHT22;18955;51.224;8.482;2023-09-19T02:14:36;15.60;86.50
32506;DHT22;18955;51.224;8.482;2023-09-19T02:17:03;15.60;85.90
32506;DHT22;18955;51.224;8.482;2023-09-19T02:19:33;15.60;86.00
32506;DHT22;18955;51.224;8.482;2023-09-19T02:22:00;15.50;86.00
32506;DHT22;18955;51.224;8.482;2023-09-19T02:24:26;15.50;85.90
32506;DHT22;18955;51.224;8.482;2023-09-19T02:26:52;15.50;85.90
32506;DHT22;18955;51.224;8.482;2023-09-19T02:29:20;15.50;85.90
32506;DHT22;18955;51.224;8.482;2023-09-19T02:31:48;15.50;86.00
32506;DHT22;18955;51.224;8.482;2023-09-19T02:34:15;15.50;85.80
32506;DHT22;18955;51.224;8.482;2023-09-19T02:36:43;15.50;85.80
32506;DHT22;18955;51.224;8.482;2023-09-19T02:39:10;15.50;85.90
32506;DHT22;18955;51.224;8.482;2023-09-19T02:41:37;15.40;85.80
32506;DHT22;18955;51.224;8.482;2023-09-19T02:44:04;15.40;85.90
32506;DHT22;18955;51.224;8.482;2023-09-19T02:46:34;15.40;85.80
32506;DHT22;18955;51.224;8.482;2023-09-19T02:49:03;15.40;85.90
32506;DHT22;18955;51.224;8.482;2023-09-19T02:51:32;15.40;86.00
32506;DHT22;18955;51.224;8.482;2023-09-19T02:53:59;15.40;85.80
32506;DHT22;18955;51.224;8.482;2023-09-19T02:56:25;15.30;85.80
32506;DHT22;18955;51.224;8.482;2023-09-19T02:58:51;15.30;85.80
32506;DHT22;18955;51.224;8.482;2023-09-19T03:01:17;15.30;85.90
32506;DHT22;18955;51.224;8.482;2023-09-19T03:03:44;15.30;85.90
32506;DHT22;18955;51.224;8.482;2023-09-19T03:06:10;15.30;85.90
32506;DHT22;18955;51.224;8.482;2023-09-19T03:08:38;15.30;85.90
32506;DHT22;18955;51.224;8.482;2023-09-19T03:11:05;15.30;85.80
32506;DHT22;18955;51.224;8.482;2023-09-19T03:13:32;15.20;85.80
32506;DHT22;18955;51.224;8.482;2023-09-19T03:15:59;15.20;85.80
32506;DHT22;18955;51.224;8.482;2023-09-19T03:18:27;15.20;85.90
32506;DHT22;18955;51.224;8.482;2023-09-19T03:20:53;15.20;85.80
32506;DHT22;18955;51.224;8.482;2023-09-19T03:23:22;15.20;85.80
32506;DHT22;18955;51.224;8.482;2023-09-19T03:25:48;15.20;85.90
32506;DHT22;18955;51.224;8.482;2023-09-19T03:28:14;15.20;85.90
32506;DHT22;18955;51.224;8.482;2023-09-19T03:30:42;15.20;85.80
32506;DHT22;18955;51.224;8.482;2023-09-19T03:33:08;15.20;85.80
32506;DHT22;18955;51.224;8.482;2023-09-19T03:35:39;15.10;85.70
32506;DHT22;18955;51.224;8.482;2023-09-19T03:38:06;15.10;85.80
32506;DHT22;18955;51.224;8.482;2023-09-19T03:40:32;15.10;85.80
32506;DHT22;18955;51.224;8.482;2023-09-19T03:43:00;15.10;85.80
32506;DHT22;18955;51.224;8.482;2023-09-19T03:45:26;15.10;85.80
32506;DHT22;18955;51.224;8.482;2023-09-19T03:47:53;15.10;85.80
32506;DHT22;18955;51.224;8.482;2023-09-19T03:50:22;15.10;85.80
32506;DHT22;18955;51.224;8.482;2023-09-19T03:52:49;15.00;85.70
32506;DHT22;18955;51.224;8.482;2023-09-19T03:55:15;15.00;85.70
32506;DHT22;18955;51.224;8.482;2023-09-19T03:57:41;15.00;85.60
32506;DHT22;18955;51.224;8.482;2023-09-19T04:00:08;15.00;85.60
32506;DHT22;18955;51.224;8.482;2023-09-19T04:02:39;15.00;85.80
32506;DHT22;18955;51.224;8.482;2023-09-19T04:05:07;14.90;85.50
32506;DHT22;18955;51.224;8.482;2023-09-19T04:07:33;15.00;85.50
32506;DHT22;18955;51.224;8.482;2023-09-19T04:10:00;15.00;85.50
32506;DHT22;18955;51.224;8.482;2023-09-19T04:12:27;14.90;85.40
32506;DHT22;18955;51.224;8.482;2023-09-19T04:14:53;14.90;85.50
32506;DHT22;18955;51.224;8.482;2023-09-19T04:17:19;14.90;85.50
32506;DHT22;18955;51.224;8.482;2023-09-19T04:19:46;14.90;85.10
32506;DHT22;18955;51.224;8.482;2023-09-19T04:22:12;14.80;85.10
32506;DHT22;18955;51.224;8.482;2023-09-19T04:24:38;14.80;85.10
32506;DHT22;18955;51.224;8.482;2023-09-19T04:27:05;14.80;85.10
32506;DHT22;18955;51.224;8.482;2023-09-19T04:29:31;14.80;84.90
32506;DHT22;18955;51.224;8.482;2023-09-19T04:31:57;14.80;84.90
32506;DHT22;18955;51.224;8.482;2023-09-19T04:34:23;14.80;84.90
32506;DHT22;18955;51.224;8.482;2023-09-19T04:36:50;14.80;84.80
32506;DHT22;18955;51.224;8.482;2023-09-19T04:39:16;14.80;85.00
32506;DHT22;18955;51.224;8.482;2023-09-19T04:41:42;14.70;85.00
32506;DHT22;18955;51.224;8.482;2023-09-19T04:44:09;14.70;85.00
32506;DHT22;18955;51.224;8.482;2023-09-19T04:46:35;14.70;84.90
32506;DHT22;18955;51.224;8.482;2023-09-19T04:49:01;14.70;84.80
32506;DHT22;18955;51.224;8.482;2023-09-19T04:51:31;14.70;84.70
32506;DHT22;18955;51.224;8.482;2023-09-19T04:54:00;14.70;84.70
32506;DHT22;18955;51.224;8.482;2023-09-19T04:56:26;14.70;84.80
32506;DHT22;18955;51.224;8.482;2023-09-19T04:58:54;14.70;84.70
32506;DHT22;18955;51.224;8.482;2023-09-19T05:01:20;14.70;84.70
32506;DHT22;18955;51.224;8.482;2023-09-19T05:03:48;14.60;84.60
32506;DHT22;18955;51.224;8.482;2023-09-19T05:06:21;14.70;84.70
32506;DHT22;18955;51.224;8.482;2023-09-19T05:08:47;14.70;84.60
32506;DHT22;18955;51.224;8.482;2023-09-19T05:11:20;14.60;84.50
32506;DHT22;18955;51.224;8.482;2023-09-19T05:13:47;14.60;84.50
32506;DHT22;18955;51.224;8.482;2023-09-19T05:16:18;14.60;84.60
32506;DHT22;18955;51.224;8.482;2023-09-19T05:18:44;14.60;84.40
32506;DHT22;18955;51.224;8.482;2023-09-19T05:21:10;14.50;84.50
32506;DHT22;18955;51.224;8.482;2023-09-19T05:23:36;14.50;84.50
32506;DHT22;18955;51.224;8.482;2023-09-19T05:26:02;14.50;84.40
32506;DHT22;18955;51.224;8.482;2023-09-19T05:28:29;14.60;84.60
32506;DHT22;18955;51.224;8.482;2023-09-19T05:30:55;14.50;84.50
32506;DHT22;18955;51.224;8.482;2023-09-19T05:33:21;14.50;84.60
32506;DHT22;18955;51.224;8.482;2023-09-19T05:35:47;14.50;84.50
32506;DHT22;18955;51.224;8.482;2023-09-19T05:38:13;14.50;84.60
32506;DHT22;18955;51.224;8.482;2023-09-19T05:40:44;14.50;84.70
32506;DHT22;18955;51.224;8.482;2023-09-19T05:43:11;14.50;84.50
32506;DHT22;18955;51.224;8.482;2023-09-19T05:45:37;14.50;84.60
32506;DHT22;18955;51.224;8.482;2023-09-19T05:48:07;14.40;84.30
32506;DHT22;18955;51.224;8.482;2023-09-19T05:50:34;14.40;84.40
32506;DHT22;18955;51.224;8.482;2023-09-19T05:53:00;14.40;84.50
32506;DHT22;18955;51.224;8.482;2023-09-19T05:55:26;14.40;84.40
32506;DHT22;18955;51.224;8.482;2023-09-19T05:57:52;14.40;84.50
32506;DHT22;18955;51.224;8.482;2023-09-19T06:00:19;14.40;84.40
32506;DHT22;18955;51.224;8.482;2023-09-19T06:02:54;14.40;84.40
32506;DHT22;18955;51.224;8.482;2023-09-19T06:05:20;14.30;84.60
32506;DHT22;18955;51.224;8.482;2023-09-19T06:07:47;14.30;84.40
32506;DHT22;18955;51.224;8.482;2023-09-19T06:10:13;14.30;84.50
32506;DHT22;18955;51.224;8.482;2023-09-19T06:12:40;14.30;84.50
32506;DHT22;18955;51.224;8.482;2023-09-19T06:15:09;14.30;84.50
32506;DHT22;18955;51.224;8.482;2023-09-19T06:17:38;14.30;84.60
32506;DHT22;18955;51.224;8.482;2023-09-19T06:20:05;14.30;84.50
32506;DHT22;18955;51.224;8.482;2023-09-19T06:22:39;14.30;84.50
32506;DHT22;18955;51.224;8.482;2023-09-19T06:25:05;14.30;84.50
32506;DHT22;18955;51.224;8.482;2023-09-19T06:27:31;14.20;84.50
32506;DHT22;18955;51.224;8.482;2023-09-19T06:29:57;14.20;84.50
32506;DHT22;18955;51.224;8.482;2023-09-19T06:32:29;14.20;84.30
32506;DHT22;18955;51.224;8.482;2023-09-19T06:34:55;14.20;84.30
32506;DHT22;18955;51.224;8.482;2023-09-19T06:37:27;14.20;84.30
32506;DHT22;18955;51.224;8.482;2023-09-19T06:39:53;14.20;84.50
32506;DHT22;18955;51.224;8.482;2023-09-19T06:42:19;14.20;84.40
32506;DHT22;18955;51.224;8.482;2023-09-19T06:44:45;14.20;84.50
32506;DHT22;18955;51.224;8.482;2023-09-19T06:47:11;14.10;84.40
32506;DHT22;18955;51.224;8.482;2023-09-19T06:49:37;14.10;84.30
32506;DHT22;18955;51.224;8.482;2023-09-19T06:52:03;14.10;84.10
32506;DHT22;18955;51.224;8.482;2023-09-19T06:54:30;14.10;84.30
32506;DHT22;18955;51.224;8.482;2023-09-19T06:56:57;14.10;84.40
32506;DHT22;18955;51.224;8.482;2023-09-19T06:59:26;14.10;84.40
32506;DHT22;18955;51.224;8.482;2023-09-19T07:01:52;14.10;84.40
32506;DHT22;18955;51.224;8.482;2023-09-19T07:04:18;14.10;84.40
32506;DHT22;18955;51.224;8.482;2023-09-19T07:06:51;14.10;84.30
32506;DHT22;18955;51.224;8.482;2023-09-19T07:09:17;14.10;84.40
32506;DHT22;18955;51.224;8.482;2023-09-19T07:11:45;14.10;84.40
32506;DHT22;18955;51.224;8.482;2023-09-19T07:14:11;14.10;84.40
32506;DHT22;18955;51.224;8.482;2023-09-19T07:16:38;14.10;84.50
32506;DHT22;18955;51.224;8.482;2023-09-19T07:19:05;14.00;84.10
32506;DHT22;18955;51.224;8.482;2023-09-19T07:21:31;14.00;84.40
32506;DHT22;18955;51.224;8.482;2023-09-19T07:24:01;14.00;84.30
32506;DHT22;18955;51.224;8.482;2023-09-19T07:26:31;14.00;84.20
32506;DHT22;18955;51.224;8.482;2023-09-19T07:28:57;14.00;84.20
32506;DHT22;18955;51.224;8.482;2023-09-19T07:31:23;14.00;84.30
32506;DHT22;18955;51.224;8.482;2023-09-19T07:33:51;14.00;84.20
32506;DHT22;18955;51.224;8.482;2023-09-19T07:36:17;14.00;84.30
32506;DHT22;18955;51.224;8.482;2023-09-19T07:38:43;14.00;84.30
32506;DHT22;18955;51.224;8.482;2023-09-19T07:41:09;14.00;84.20
32506;DHT22;18955;51.224;8.482;2023-09-19T07:43:35;14.00;84.20
32506;DHT22;18955;51.224;8.482;2023-09-19T07:46:06;14.00;84.30
32506;DHT22;18955;51.224;8.482;2023-09-19T07:48:35;14.00;84.30
32506;DHT22;18955;51.224;8.482;2023-09-19T07:51:05;13.90;84.10
32506;DHT22;18955;51.224;8.482;2023-09-19T07:53:32;14.00;84.20
32506;DHT22;18955;51.224;8.482;2023-09-19T07:56:04;13.90;84.20
32506;DHT22;18955;51.224;8.482;2023-09-19T07:58:30;13.90;84.40
32506;DHT22;18955;51.224;8.482;2023-09-19T08:01:02;13.90;84.30
32506;DHT22;18955;51.224;8.482;2023-09-19T08:03:28;13.90;84.30
32506;DHT22;18955;51.224;8.482;2023-09-19T08:05:55;13.90;84.30
32506;DHT22;18955;51.224;8.482;2023-09-19T08:08:21;13.90;84.20
32506;DHT22;18955;51.224;8.482;2023-09-19T08:10:52;13.90;84.40
32506;DHT22;18955;51.224;8.482;2023-09-19T08:13:18;13.90;84.40
32506;DHT22;18955;51.224;8.482;2023-09-19T08:15:44;13.90;84.40
32506;DHT22;18955;51.224;8.482;2023-09-19T08:18:10;13.90;84.30
32506;DHT22;18955;51.224;8.482;2023-09-19T08:20:38;13.90;84.40
32506;DHT22;18955;51.224;8.482;2023-09-19T08:23:04;13.90;84.40
32506;DHT22;18955;51.224;8.482;2023-09-19T08:25:30;13.90;84.30
32506;DHT22;18955;51.224;8.482;2023-09-19T08:27:56;13.90;84.40
32506;DHT22;18955;51.224;8.482;2023-09-19T08:30:23;13.90;84.40
32506;DHT22;18955;51.224;8.482;2023-09-19T08:32:50;13.90;84.50
32506;DHT22;18955;51.224;8.482;2023-09-19T08:35:16;13.90;84.40
32506;DHT22;18955;51.224;8.482;2023-09-19T08:37:42;13.90;84.40
32506;DHT22;18955;51.224;8.482;2023-09-19T08:40:11;13.90;84.40
32506;DHT22;18955;51.224;8.482;2023-09-19T08:42:51;13.90;84.40
32506;DHT22;18955;51.224;8.482;2023-09-19T08:45:22;13.90;84.50
32506;DHT22;18955;51.224;8.482;2023-09-19T08:50:27;13.90;84.40
32506;DHT22;18955;51.224;8.482;2023-09-19T08:52:55;13.90;84.40
32506;DHT22;18955;51.224;8.482;2023-09-19T08:55:23;13.90;84.40
32506;DHT22;18955;51.224;8.482;2023-09-19T08:57:49;13.90;84.50
32506;DHT22;18955;51.224;8.482;2023-09-19T09:00:17;13.90;84.50
32506;DHT22;18955;51.224;8.482;2023-09-19T09:02:44;13.90;84.60
32506;DHT22;18955;51.224;8.482;2023-09-19T09:05:11;13.90;84.50
32506;DHT22;18955;51.224;8.482;2023-09-19T09:07:37;13.90;84.50
32506;DHT22;18955;51.224;8.482;2023-09-19T09:10:04;13.90;84.60
32506;DHT22;18955;51.224;8.482;2023-09-19T09:12:30;13.90;84.50
32506;DHT22;18955;51.224;8.482;2023-09-19T09:14:56;13.90;84.60
32506;DHT22;18955;51.224;8.482;2023-09-19T09:17:23;13.90;84.60
32506;DHT22;18955;51.224;8.482;2023-09-19T09:19:53;13.90;84.30
32506;DHT22;18955;51.224;8.482;2023-09-19T09:22:19;13.90;84.50
32506;DHT22;18955;51.224;8.482;2023-09-19T09:27:24;13.90;84.60
32506;DHT22;18955;51.224;8.482;2023-09-19T09:29:51;13.90;84.60
32506;DHT22;18955;51.224;8.482;2023-09-19T09:34:53;13.90;84.40
32506;DHT22;18955;51.224;8.482;2023-09-19T09:37:20;13.90;84.30
32506;DHT22;18955;51.224;8.482;2023-09-19T09:39:49;13.90;84.50
32506;DHT22;18955;51.224;8.482;2023-09-19T09:42:35;13.90;84.50
32506;DHT22;18955;51.224;8.482;2023-09-19T09:45:14;13.90;84.40
32506;DHT22;18955;51.224;8.482;2023-09-19T09:47:41;13.90;84.50
32506;DHT22;18955;51.224;8.482;2023-09-19T09:50:07;13.90;84.50
32506;DHT22;18955;51.224;8.482;2023-09-19T09:52:46;13.90;84.50
32506;DHT22;18955;51.224;8.482;2023-09-19T09:55:12;13.90;84.40
32506;DHT22;18955;51.224;8.482;2023-09-19T09:57:38;13.90;84.40
32506;DHT22;18955;51.224;8.482;2023-09-19T10:00:07;13.90;84.30
32506;DHT22;18955;51.224;8.482;2023-09-19T10:02:38;14.00;84.50
32506;DHT22;18955;51.224;8.482;2023-09-19T10:05:14;14.00;84.50
32506;DHT22;18955;51.224;8.482;2023-09-19T10:07:47;13.90;84.40
32506;DHT22;18955;51.224;8.482;2023-09-19T10:10:31;13.90;84.40
32506;DHT22;18955;51.224;8.482;2023-09-19T10:13:20;14.00;84.40
32506;DHT22;18955;51.224;8.482;2023-09-19T10:15:49;14.00;84.50
32506;DHT22;18955;51.224;8.482;2023-09-19T10:18:21;14.00;84.40
32506;DHT22;18955;51.224;8.482;2023-09-19T10:20:47;14.00;84.40
32506;DHT22;18955;51.224;8.482;2023-09-19T10:23:16;14.00;84.30
32506;DHT22;18955;51.224;8.482;2023-09-19T10:25:48;14.00;84.30
32506;DHT22;18955;51.224;8.482;2023-09-19T10:28:15;14.00;84.30
32506;DHT22;18955;51.224;8.482;2023-09-19T10:30:42;14.00;84.00
32506;DHT22;18955;51.224;8.482;2023-09-19T10:33:14;14.00;83.90
32506;DHT22;18955;51.224;8.482;2023-09-19T10:35:44;14.00;84.10
32506;DHT22;18955;51.224;8.482;2023-09-19T10:38:11;14.00;84.10
32506;DHT22;18955;51.224;8.482;2023-09-19T10:40:38;14.00;84.10
32506;DHT22;18955;51.224;8.482;2023-09-19T10:43:13;14.00;84.10
32506;DHT22;18955;51.224;8.482;2023-09-19T10:45:45;14.00;84.10
32506;DHT22;18955;51.224;8.482;2023-09-19T10:48:15;14.10;84.10
32506;DHT22;18955;51.224;8.482;2023-09-19T10:50:45;14.10;84.10
32506;DHT22;18955;51.224;8.482;2023-09-19T10:53:12;14.10;84.10
32506;DHT22;18955;51.224;8.482;2023-09-19T10:55:39;14.10;84.20
32506;DHT22;18955;51.224;8.482;2023-09-19T10:58:05;14.10;84.20
32506;DHT22;18955;51.224;8.482;2023-09-19T11:00:53;14.10;84.10
32506;DHT22;18955;51.224;8.482;2023-09-19T11:03:20;14.10;84.20
32506;DHT22;18955;51.224;8.482;2023-09-19T11:06:09;14.10;84.20
32506;DHT22;18955;51.224;8.482;2023-09-19T11:36:06;14.20;84.30
32506;DHT22;18955;51.224;8.482;2023-09-19T11:43:46;14.20;84.10
32506;DHT22;18955;51.224;8.482;2023-09-19T11:46:12;14.20;84.10
32506;DHT22;18955;51.224;8.482;2023-09-19T11:48:42;14.20;84.10
32506;DHT22;18955;51.224;8.482;2023-09-19T11:51:13;14.20;84.00
32506;DHT22;18955;51.224;8.482;2023-09-19T11:53:48;14.20;84.10
32506;DHT22;18955;51.224;8.482;2023-09-19T11:56:17;14.20;84.10
32506;DHT22;18955;51.224;8.482;2023-09-19T11:58:44;14.30;84.20
32506;DHT22;18955;51.224;8.482;2023-09-19T12:01:13;14.30;84.10
32506;DHT22;18955;51.224;8.482;2023-09-19T12:03:42;14.30;84.10
32506;DHT22;18955;51.224;8.482;2023-09-19T12:06:11;14.30;84.10
32506;DHT22;18955;51.224;8.482;2023-09-19T12:08:41;14.30;84.00
32506;DHT22;18955;51.224;8.482;2023-09-19T12:11:11;14.30;84.00
32506;DHT22;18955;51.224;8.482;2023-09-19T12:13:42;14.40;84.20
32506;DHT22;18955;51.224;8.482;2023-09-19T12:16:15;14.40;84.00
32506;DHT22;18955;51.224;8.482;2023-09-19T12:18:43;14.40;84.00
32506;DHT22;18955;51.224;8.482;2023-09-19T12:21:31;14.40;84.00
32506;DHT22;18955;51.224;8.482;2023-09-19T12:26:37;14.40;83.90
32506;DHT22;18955;51.224;8.482;2023-09-19T12:29:03;14.40;83.70
32506;DHT22;18955;51.224;8.482;2023-09-19T12:31:31;14.40;83.70
32506;DHT22;18955;51.224;8.482;2023-09-19T12:34:02;14.40;83.70
32506;DHT22;18955;51.224;8.482;2023-09-19T12:36:28;14.40;83.70
32506;DHT22;18955;51.224;8.482;2023-09-19T12:39:00;14.40;83.80
32506;DHT22;18955;51.224;8.482;2023-09-19T12:41:26;14.40;83.50
32506;DHT22;18955;51.224;8.482;2023-09-19T12:43:53;14.50;83.30
32506;DHT22;18955;51.224;8.482;2023-09-19T12:46:20;14.50;83.50
32506;DHT22;18955;51.224;8.482;2023-09-19T12:51:35;14.50;83.60
32506;DHT22;18955;51.224;8.482;2023-09-19T12:54:01;14.50;83.70
32506;DHT22;18955;51.224;8.482;2023-09-19T12:56:28;14.50;83.50
32506;DHT22;18955;51.224;8.482;2023-09-19T12:59:06;14.50;83.70
32506;DHT22;18955;51.224;8.482;2023-09-19T13:01:35;14.50;83.30
32506;DHT22;18955;51.224;8.482;2023-09-19T13:06:38;14.50;83.50
32506;DHT22;18955;51.224;8.482;2023-09-19T13:09:11;14.60;83.60
32506;DHT22;18955;51.224;8.482;2023-09-19T13:11:38;14.60;83.60
32506;DHT22;18955;51.224;8.482;2023-09-19T13:14:24;14.60;83.50
32506;DHT22;18955;51.224;8.482;2023-09-19T13:22:01;14.60;83.50
32506;DHT22;18955;51.224;8.482;2023-09-19T13:24:28;14.70;83.60
32506;DHT22;18955;51.224;8.482;2023-09-19T13:26:56;14.70;83.50
32506;DHT22;18955;51.224;8.482;2023-09-19T13:29:22;14.70;83.60
32506;DHT22;18955;51.224;8.482;2023-09-19T13:31:49;14.70;83.50
32506;DHT22;18955;51.224;8.482;2023-09-19T13:34:15;14.70;83.60
32506;DHT22;18955;51.224;8.482;2023-09-19T13:36:43;14.70;83.40
32506;DHT22;18955;51.224;8.482;2023-09-19T13:39:09;14.80;83.30
32506;DHT22;18955;51.224;8.482;2023-09-19T13:41:35;14.70;83.30
32506;DHT22;18955;51.224;8.482;2023-09-19T13:44:04;14.80;83.30
32506;DHT22;18955;51.224;8.482;2023-09-19T13:46:31;14.80;83.10
32506;DHT22;18955;51.224;8.482;2023-09-19T13:49:01;14.80;83.70
32506;DHT22;18955;51.224;8.482;2023-09-19T13:51:30;14.90;83.40
32506;DHT22;18955;51.224;8.482;2023-09-19T13:53:56;14.90;83.20
32506;DHT22;18955;51.224;8.482;2023-09-19T13:56:22;15.00;83.20
32506;DHT22;18955;51.224;8.482;2023-09-19T13:58:48;15.10;83.10
32506;DHT22;18955;51.224;8.482;2023-09-19T14:01:14;15.10;82.90
32506;DHT22;18955;51.224;8.482;2023-09-19T14:03:40;15.20;82.70
32506;DHT22;18955;51.224;8.482;2023-09-19T14:06:07;15.20;82.70
32506;DHT22;18955;51.224;8.482;2023-09-19T14:08:33;15.30;82.30
32506;DHT22;18955;51.224;8.482;2023-09-19T14:12:32;15.40;82.00
32506;DHT22;18955;51.224;8.482;2023-09-19T14:14:59;15.50;82.20
32506;DHT22;18955;51.224;8.482;2023-09-19T14:17:26;15.50;82.10
32506;DHT22;18955;51.224;8.482;2023-09-19T14:19:52;15.50;82.10
32506;DHT22;18955;51.224;8.482;2023-09-19T14:22:18;15.60;82.10
32506;DHT22;18955;51.224;8.482;2023-09-19T14:24:45;15.60;82.30
32506;DHT22;18955;51.224;8.482;2023-09-19T14:27:11;15.60;82.60
32506;DHT22;18955;51.224;8.482;2023-09-19T14:29:37;15.60;82.80
32506;DHT22;18955;51.224;8.482;2023-09-19T14:32:04;15.60;82.50
32506;DHT22;18955;51.224;8.482;2023-09-19T14:34:31;15.70;82.90
32506;DHT22;18955;51.224;8.482;2023-09-19T14:36:57;15.70;82.00
32506;DHT22;18955;51.224;8.482;2023-09-19T14:39:23;15.70;82.10
32506;DHT22;18955;51.224;8.482;2023-09-19T14:41:50;15.80;82.60
32506;DHT22;18955;51.224;8.482;2023-09-19T14:44:16;15.80;82.50
32506;DHT22;18955;51.224;8.482;2023-09-19T14:46:42;15.80;82.10
32506;DHT22;18955;51.224;8.482;2023-09-19T14:49:12;15.90;82.80
32506;DHT22;18955;51.224;8.482;2023-09-19T14:51:38;15.90;81.80
32506;DHT22;18955;51.224;8.482;2023-09-19T14:54:10;16.00;82.70
32506;DHT22;18955;51.224;8.482;2023-09-19T14:56:36;16.10;82.50
32506;DHT22;18955;51.224;8.482;2023-09-19T14:59:02;16.10;81.70
32506;DHT22;18955;51.224;8.482;2023-09-19T15:01:28;16.10;81.60
32506;DHT22;18955;51.224;8.482;2023-09-19T15:03:55;16.20;82.40
32506;DHT22;18955;51.224;8.482;2023-09-19T15:06:22;16.10;82.80
32506;DHT22;18955;51.224;8.482;2023-09-19T15:08:48;16.10;83.00
32506;DHT22;18955;51.224;8.482;2023-09-19T15:11:19;16.10;83.00
32506;DHT22;18955;51.224;8.482;2023-09-19T15:13:47;16.10;82.90
32506;DHT22;18955;51.224;8.482;2023-09-19T15:16:14;16.10;82.90
32506;DHT22;18955;51.224;8.482;2023-09-19T15:18:42;16.10;83.00
32506;DHT22;18955;51.224;8.482;2023-09-19T15:21:10;16.10;83.00
32506;DHT22;18955;51.224;8.482;2023-09-19T15:23:38;16.10;83.20
32506;DHT22;18955;51.224;8.482;2023-09-19T15:26:05;16.10;83.00
32506;DHT22;18955;51.224;8.482;2023-09-19T15:28:32;16.10;83.00
32506;DHT22;18955;51.224;8.482;2023-09-19T15:33:32;16.10;83.00
32506;DHT22;18955;51.224;8.482;2023-09-19T15:38:30;16.10;82.80
32506;DHT22;18955;51.224;8.482;2023-09-19T15:41:00;16.10;82.60
32506;DHT22;18955;51.224;8.482;2023-09-19T15:43:27;16.10;82.60
32506;DHT22;18955;51.224;8.482;2023-09-19T15:45:53;16.10;82.80
32506;DHT22;18955;51.224;8.482;2023-09-19T15:48:19;16.10;82.70
32506;DHT22;18955;51.224;8.482;2023-09-19T15:50:47;16.10;82.60
32506;DHT22;18955;51.224;8.482;2023-09-19T15:53:13;16.10;82.50
32506;DHT22;18955;51.224;8.482;2023-09-19T15:55:40;16.10;82.50
32506;DHT22;18955;51.224;8.482;2023-09-19T15:58:06;16.10;82.50
32506;DHT22;18955;51.224;8.482;2023-09-19T16:00:33;16.20;82.60
32506;DHT22;18955;51.224;8.482;2023-09-19T16:03:02;16.20;82.40
32506;DHT22;18955;51.224;8.482;2023-09-19T16:05:38;16.20;82.50
32506;DHT22;18955;51.224;8.482;2023-09-19T16:08:06;16.20;82.50
32506;DHT22;18955;51.224;8.482;2023-09-19T16:10:36;16.20;82.50
32506;DHT22;18955;51.224;8.482;2023-09-19T16:13:04;16.20;82.40
32506;DHT22;18955;51.224;8.482;2023-09-19T16:15:30;16.20;82.40
32506;DHT22;18955;51.224;8.482;2023-09-19T16:17:56;16.20;82.40
32506;DHT22;18955;51.224;8.482;2023-09-19T16:20:22;16.20;82.30
32506;DHT22;18955;51.224;8.482;2023-09-19T16:22:49;16.20;82.40
32506;DHT22;18955;51.224;8.482;2023-09-19T16:25:15;16.20;82.20
32506;DHT22;18955;51.224;8.482;2023-09-19T16:27:42;16.20;82.40
32506;DHT22;18955;51.224;8.482;2023-09-19T16:30:08;16.20;82.30
32506;DHT22;18955;51.224;8.482;2023-09-19T16:32:38;16.20;82.40
32506;DHT22;18955;51.224;8.482;2023-09-19T16:35:04;16.20;82.90
32506;DHT22;18955;51.224;8.482;2023-09-19T16:37:30;16.20;82.40
32506;DHT22;18955;51.224;8.482;2023-09-19T16:39:57;16.20;82.20
32506;DHT22;18955;51.224;8.482;2023-09-19T16:42:23;16.20;82.60
32506;DHT22;18955;51.224;8.482;2023-09-19T16:44:50;16.20;82.30
32506;DHT22;18955;51.224;8.482;2023-09-19T16:47:16;16.20;82.30
32506;DHT22;18955;51.224;8.482;2023-09-19T16:49:42;16.20;82.20
32506;DHT22;18955;51.224;8.482;2023-09-19T16:52:09;16.20;82.30
32506;DHT22;18955;51.224;8.482;2023-09-19T16:54:35;16.20;82.20
32506;DHT22;18955;51.224;8.482;2023-09-19T16:57:02;16.20;82.30